Clayton, Ohio
Current Conditions -  °F | °C
As of 7:56 PM on Tuesday 25 Nov 2014 (Local Time) from KDAY Reporting Station
Scattered Clouds Scattered Clouds  
Wind Chill: 23°   Ceiling: Unl
Heat Index: 31°   Visibility: 10mi
Dew Point: 26°   Wind: 8mph
Humidity: 82%   Direction: 340°NNW
Pressure: 30.17"   Gusts: NA
Location:  39.86°N, 84.36°W
Report Text: KDAY 260056Z 34007KT 10SM SCT030 M01/M03 A3017 RMK AO2 SLP227 T10061033
Loading
Personal Weather Stations






























Interactive Weather Map New forecast layout! Learn more

10-Day Weather Forecast

Advertisements
Track Severe Weather on mobile